createdAt,value
2018-09-09T00:00:16.990Z,2.07
2018-09-09T00:02:45.093Z,2.23
2018-09-09T00:05:13.208Z,3.07
2018-09-09T00:07:41.302Z,3.10
2018-09-09T00:10:09.424Z,2.13
2018-09-09T00:12:37.514Z,2.53
2018-09-09T00:15:05.615Z,1.57
2018-09-09T00:17:33.706Z,1.30
2018-09-09T00:20:01.802Z,1.23
2018-09-09T00:22:29.862Z,2.97
2018-09-09T00:24:57.971Z,2.20
2018-09-09T00:27:26.064Z,2.20
2018-09-09T00:29:54.147Z,2.03
2018-09-09T00:32:22.227Z,2.10
2018-09-09T00:34:50.306Z,2.87
2018-09-09T00:37:18.387Z,1.93
2018-09-09T00:39:46.506Z,1.70
2018-09-09T00:42:14.644Z,2.60
2018-09-09T00:44:42.777Z,1.53
2018-09-09T00:47:10.851Z,2.97
2018-09-09T00:49:44.426Z,1.70
2018-09-09T00:52:18.447Z,1.37
2018-09-09T00:54:46.564Z,1.67
2018-09-09T00:57:14.727Z,2.03
2018-09-09T00:59:42.827Z,1.17
2018-09-09T01:02:11.118Z,2.10
2018-09-09T01:04:39.206Z,2.60
2018-09-09T01:07:07.287Z,2.63
2018-09-09T01:09:35.563Z,1.93
2018-09-09T01:12:04.366Z,1.80
2018-09-09T01:14:33.283Z,1.73
2018-09-09T01:17:01.371Z,1.57
2018-09-09T01:19:29.483Z,1.80
2018-09-09T01:21:57.551Z,2.37
2018-09-09T01:24:25.632Z,2.87
2018-09-09T01:26:54.170Z,1.60
2018-09-09T01:29:22.443Z,2.33
2018-09-09T01:31:50.555Z,1.93
2018-09-09T01:34:18.619Z,2.33
2018-09-09T01:36:46.708Z,2.03
2018-09-09T01:39:14.825Z,2.43
2018-09-09T01:41:42.867Z,1.43
2018-09-09T01:44:10.951Z,1.40
2018-09-09T01:46:39.042Z,2.30
2018-09-09T01:49:07.227Z,1.87
2018-09-09T01:51:35.310Z,2.53
2018-09-09T01:54:03.378Z,4.27
2018-09-09T01:56:31.450Z,1.87
2018-09-09T01:58:59.519Z,2.20
2018-09-09T02:01:27.699Z,2.00
2018-09-09T02:03:55.799Z,2.23
2018-09-09T02:06:23.939Z,1.43
2018-09-09T02:08:52.027Z,2.20
2018-09-09T02:11:20.106Z,2.00
2018-09-09T02:13:48.194Z,2.90
2018-09-09T02:16:16.304Z,2.00
2018-09-09T02:18:44.399Z,2.17
2018-09-09T02:21:12.492Z,3.20
2018-09-09T02:23:40.613Z,2.73
2018-09-09T02:26:08.704Z,1.80
2018-09-09T02:28:36.962Z,2.40
2018-09-09T02:31:05.060Z,5.03
2018-09-09T02:33:33.147Z,3.07
2018-09-09T02:36:01.274Z,2.30
2018-09-09T02:38:29.362Z,3.90
2018-09-09T02:40:57.443Z,2.63
2018-09-09T02:43:25.722Z,3.80
2018-09-09T02:45:53.814Z,2.67
2018-09-09T02:48:21.943Z,3.73
2018-09-09T02:50:50.051Z,3.90
2018-09-09T02:53:18.196Z,2.73
2018-09-09T02:55:46.312Z,4.80
2018-09-09T02:58:16.123Z,3.33
2018-09-09T03:00:44.409Z,2.63
2018-09-09T03:03:12.674Z,4.60
2018-09-09T03:05:41.251Z,2.97
2018-09-09T03:08:09.651Z,2.23
2018-09-09T03:10:38.322Z,5.13
2018-09-09T03:13:06.427Z,2.47
2018-09-09T03:15:34.666Z,3.33
2018-09-09T03:18:03.006Z,3.00
2018-09-09T03:20:31.053Z,2.40
2018-09-09T03:22:59.198Z,3.57
2018-09-09T03:25:27.296Z,3.50
2018-09-09T03:27:55.416Z,3.23
2018-09-09T03:30:23.515Z,3.43
2018-09-09T03:32:51.595Z,4.17
2018-09-09T03:35:19.694Z,6.30
2018-09-09T03:37:47.792Z,4.70
2018-09-09T03:40:15.867Z,2.30
2018-09-09T03:42:43.991Z,3.47
2018-09-09T03:45:12.079Z,2.80
2018-09-09T03:47:40.155Z,3.70
2018-09-09T03:50:08.258Z,3.53
2018-09-09T03:52:36.359Z,2.30
2018-09-09T03:55:04.456Z,2.50
2018-09-09T03:57:32.550Z,3.87
2018-09-09T04:00:00.648Z,4.20
2018-09-09T04:02:28.942Z,2.70
2018-09-09T04:04:57.047Z,3.03
2018-09-09T04:07:25.151Z,2.47
2018-09-09T04:09:53.269Z,3.17
2018-09-09T04:12:21.354Z,3.67
2018-09-09T04:14:49.443Z,3.80
2018-09-09T04:17:17.542Z,2.63
2018-09-09T04:19:45.623Z,4.73
2018-09-09T04:22:13.727Z,3.50
2018-09-09T04:24:41.823Z,3.20
2018-09-09T04:27:09.923Z,2.43
2018-09-09T04:29:37.996Z,3.60
2018-09-09T04:32:06.242Z,4.30
2018-09-09T04:34:34.327Z,2.83
2018-09-09T04:37:02.432Z,5.00
2018-09-09T04:39:30.520Z,4.03
2018-09-09T04:41:58.599Z,2.33
2018-09-09T04:44:26.753Z,3.40
2018-09-09T04:46:54.840Z,3.23
2018-09-09T04:49:22.944Z,2.60
2018-09-09T04:51:51.016Z,2.03
2018-09-09T04:54:19.104Z,3.63
2018-09-09T04:56:47.179Z,2.77
2018-09-09T04:59:15.258Z,3.03
2018-09-09T05:01:43.363Z,3.57
2018-09-09T05:04:11.487Z,3.10
2018-09-09T05:06:39.584Z,4.17
2018-09-09T05:09:08.289Z,3.30
2018-09-09T05:11:36.595Z,2.50
2018-09-09T05:14:04.705Z,2.50
2018-09-09T05:16:32.907Z,3.40
2018-09-09T05:19:01.033Z,3.00
2018-09-09T05:21:29.124Z,2.60
2018-09-09T05:23:57.219Z,2.77
2018-09-09T05:26:25.344Z,3.37
2018-09-09T05:28:53.451Z,2.23
2018-09-09T05:31:21.554Z,4.73
2018-09-09T05:33:49.728Z,2.13
2018-09-09T05:36:17.831Z,2.03
2018-09-09T05:38:46.068Z,3.60
2018-09-09T05:41:14.142Z,2.57
2018-09-09T05:43:42.248Z,2.60
2018-09-09T05:46:10.353Z,2.70
2018-09-09T05:48:38.454Z,2.40
2018-09-09T05:51:06.835Z,2.30
2018-09-09T05:53:34.938Z,2.47
2018-09-09T05:56:03.056Z,2.73
2018-09-09T05:58:31.209Z,1.90
2018-09-09T06:00:59.296Z,3.50
2018-09-09T06:03:27.387Z,1.63
2018-09-09T06:05:55.663Z,5.10
2018-09-09T06:08:23.822Z,2.00
2018-09-09T06:10:54.804Z,1.67
2018-09-09T06:13:24.603Z,2.97
2018-09-09T06:15:52.697Z,3.00
2018-09-09T06:18:20.795Z,2.00
2018-09-09T06:20:49.131Z,2.13
2018-09-09T06:23:17.261Z,1.83
2018-09-09T06:25:45.579Z,1.87
2018-09-09T06:28:13.790Z,4.23
2018-09-09T06:30:41.823Z,2.73
2018-09-09T06:33:10.004Z,1.80
2018-09-09T06:35:38.309Z,3.70
2018-09-09T06:38:06.560Z,3.00
2018-09-09T06:40:34.683Z,1.93
2018-09-09T06:43:02.791Z,2.23
2018-09-09T06:45:30.890Z,3.33
2018-09-09T06:47:58.993Z,1.80
2018-09-09T06:50:27.111Z,3.47
2018-09-09T06:52:55.227Z,5.70
2018-09-09T06:55:23.538Z,2.13
2018-09-09T06:57:52.356Z,1.77
2018-09-09T07:00:20.507Z,1.30
2018-09-09T07:02:48.632Z,2.03
2018-09-09T07:05:16.787Z,2.57
2018-09-09T07:07:44.874Z,1.57
2018-09-09T07:10:12.966Z,2.47
2018-09-09T07:12:41.908Z,2.17
2018-09-09T07:15:10.046Z,1.17
2018-09-09T07:17:38.484Z,1.93
2018-09-09T07:20:06.612Z,1.57
2018-09-09T07:22:34.783Z,2.37
2018-09-09T07:25:03.018Z,2.17
2018-09-09T07:27:31.178Z,1.70
2018-09-09T07:29:59.314Z,1.73
2018-09-09T07:32:29.036Z,3.43
2018-09-09T07:34:57.155Z,1.53
2018-09-09T07:37:25.333Z,2.10
2018-09-09T07:39:54.562Z,1.47
2018-09-09T07:42:22.694Z,1.53
2018-09-09T07:44:50.808Z,2.73
2018-09-09T07:47:18.996Z,4.40
2018-09-09T07:49:47.170Z,1.57
2018-09-09T07:52:15.412Z,2.33
2018-09-09T07:54:43.699Z,1.60
2018-09-09T07:57:11.890Z,1.70
2018-09-09T07:59:40.038Z,1.70
2018-09-09T08:02:08.420Z,1.30
2018-09-09T08:04:36.986Z,1.67
2018-09-09T08:07:05.137Z,2.40
2018-09-09T08:09:35.596Z,3.30
2018-09-09T08:12:05.486Z,1.73
2018-09-09T08:14:36.235Z,3.10
2018-09-09T08:17:05.776Z,2.20
2018-09-09T08:19:35.462Z,3.70
2018-09-09T08:22:03.643Z,2.57
2018-09-09T08:24:31.729Z,5.47
2018-09-09T08:26:59.836Z,4.77
2018-09-09T08:29:28.517Z,2.63
2018-09-09T08:31:56.693Z,16.62
2018-09-09T08:34:25.798Z,7.33
2018-09-09T08:36:54.650Z,3.77
2018-09-09T08:39:24.875Z,12.80
2018-09-09T08:41:53.762Z,16.10
2018-09-09T08:44:22.069Z,8.87
2018-09-09T08:46:50.254Z,6.30
2018-09-09T08:49:18.560Z,6.17
2018-09-09T08:51:46.993Z,2.40
2018-09-09T08:54:15.151Z,3.17
2018-09-09T08:56:43.271Z,4.87
2018-09-09T08:59:11.382Z,5.67
2018-09-09T09:01:40.365Z,6.03
2018-09-09T09:04:08.527Z,3.33
2018-09-09T09:06:37.418Z,5.53
2018-09-09T09:09:07.497Z,4.20
2018-09-09T09:11:35.843Z,3.77
2018-09-09T09:14:05.958Z,5.73
2018-09-09T09:16:34.997Z,10.27
2018-09-09T09:19:03.445Z,9.63
2018-09-09T09:21:31.579Z,8.53
2018-09-09T09:23:59.655Z,2.50
2018-09-09T09:26:27.796Z,3.03
2018-09-09T09:28:55.889Z,3.37
2018-09-09T09:31:24.091Z,4.23
2018-09-09T09:33:52.232Z,4.97
2018-09-09T09:36:20.399Z,2.40
2018-09-09T09:38:48.503Z,2.30
2018-09-09T09:41:16.980Z,3.07
2018-09-09T09:43:45.074Z,4.27
2018-09-09T09:46:13.169Z,1.97
2018-09-09T09:48:41.327Z,4.13
2018-09-09T09:51:09.439Z,2.83
2018-09-09T09:53:37.638Z,4.50
2018-09-09T09:56:05.763Z,4.63
2018-09-09T09:58:33.993Z,2.03
2018-09-09T10:01:02.403Z,4.33
2018-09-09T10:03:30.555Z,1.93
2018-09-09T10:05:59.532Z,2.50
2018-09-09T10:08:27.624Z,1.53
2018-09-09T10:10:55.732Z,1.87
2018-09-09T10:13:23.824Z,3.63
2018-09-09T10:15:51.923Z,2.17
2018-09-09T10:18:20.043Z,1.67
2018-09-09T10:20:48.139Z,2.60
2018-09-09T10:23:16.262Z,1.20
2018-09-09T10:25:49.341Z,1.30
2018-09-09T10:28:18.780Z,5.10
2018-09-09T10:30:46.928Z,3.80
2018-09-09T10:33:16.062Z,3.83
2018-09-09T10:35:44.497Z,2.97
2018-09-09T10:38:19.794Z,3.90
2018-09-09T10:40:47.886Z,6.60
2018-09-09T10:43:16.223Z,4.53
2018-09-09T10:45:44.307Z,7.77
2018-09-09T10:48:12.378Z,5.67
2018-09-09T10:50:40.502Z,3.13
2018-09-09T10:53:08.661Z,8.33
2018-09-09T10:55:36.679Z,5.20
2018-09-09T10:58:04.836Z,2.80
2018-09-09T11:00:33.652Z,9.03
2018-09-09T11:03:01.776Z,7.50
2018-09-09T11:05:29.848Z,10.20
2018-09-09T11:07:57.954Z,2.93
2018-09-09T11:10:26.032Z,5.17
2018-09-09T11:12:54.215Z,6.20
2018-09-09T11:15:22.280Z,4.13
2018-09-09T11:17:51.379Z,3.57
2018-09-09T11:20:21.365Z,4.60
2018-09-09T11:22:49.465Z,2.93
2018-09-09T11:25:20.040Z,6.00
2018-09-09T11:27:51.812Z,5.47
2018-09-09T11:30:19.896Z,10.40
2018-09-09T11:32:47.995Z,6.90
2018-09-09T11:35:16.066Z,5.00
2018-09-09T11:37:44.154Z,6.27
2018-09-09T11:40:12.283Z,9.37
2018-09-09T11:42:40.387Z,5.20
2018-09-09T11:45:08.474Z,5.60
2018-09-09T11:47:36.620Z,2.97
2018-09-09T11:50:04.735Z,6.13
2018-09-09T11:52:32.832Z,10.23
2018-09-09T11:55:00.919Z,3.33
2018-09-09T11:57:29.216Z,8.57
2018-09-09T11:59:57.343Z,5.73
2018-09-09T12:02:25.451Z,5.27
2018-09-09T12:04:53.924Z,7.10
2018-09-09T12:07:22.108Z,8.40
2018-09-09T12:09:50.896Z,4.93
2018-09-09T12:12:19.067Z,3.30
2018-09-09T12:14:47.321Z,3.50
2018-09-09T12:17:15.548Z,7.17
2018-09-09T12:19:43.685Z,4.40
2018-09-09T12:22:11.862Z,1.33
2018-09-09T12:24:40.044Z,5.17
2018-09-09T12:27:08.203Z,4.40
2018-09-09T12:29:36.390Z,3.80
2018-09-09T12:32:05.219Z,2.50
2018-09-09T12:34:33.328Z,3.47
2018-09-09T12:37:01.462Z,3.73
2018-09-09T12:39:29.582Z,4.23
2018-09-09T12:41:57.659Z,3.03
2018-09-09T12:44:31.223Z,2.67
2018-09-09T12:47:04.801Z,2.13
2018-09-09T12:49:32.853Z,2.30
2018-09-09T12:52:01.062Z,4.60
2018-09-09T12:54:29.256Z,2.33
2018-09-09T12:56:57.670Z,1.63
2018-09-09T12:59:25.875Z,3.80
2018-09-09T13:01:54.120Z,2.80
2018-09-09T13:04:22.295Z,3.07
2018-09-09T13:06:50.495Z,2.47
2018-09-09T13:09:18.627Z,2.50
2018-09-09T13:11:46.775Z,3.33
2018-09-09T13:14:14.919Z,2.37
2018-09-09T13:16:43.032Z,4.27
2018-09-09T13:19:11.184Z,3.60
2018-09-09T13:21:39.505Z,2.73
2018-09-09T13:24:07.675Z,2.23
2018-09-09T13:26:36.231Z,2.07
2018-09-09T13:29:04.684Z,2.97
2018-09-09T13:31:32.845Z,2.20
2018-09-09T13:34:00.979Z,4.13
2018-09-09T13:36:29.131Z,2.00
2018-09-09T13:38:57.296Z,3.37
2018-09-09T13:41:25.395Z,2.70
2018-09-09T13:43:53.563Z,4.17
2018-09-09T13:46:21.651Z,2.23
2018-09-09T13:48:50.896Z,2.33
2018-09-09T13:51:19.003Z,1.70
2018-09-09T13:53:47.146Z,1.10
2018-09-09T13:56:15.290Z,2.03
2018-09-09T13:58:43.444Z,2.60
2018-09-09T14:01:11.611Z,1.97
2018-09-09T14:03:39.732Z,2.80
2018-09-09T14:06:08.317Z,3.50
2018-09-09T14:08:37.755Z,1.53
2018-09-09T14:11:09.455Z,2.00
2018-09-09T14:13:38.106Z,1.83
2018-09-09T14:16:06.566Z,6.60
2018-09-09T14:18:34.883Z,21.73
2018-09-09T14:21:03.003Z,7.97
2018-09-09T14:23:31.128Z,5.20
2018-09-09T14:25:59.269Z,11.23
2018-09-09T14:28:27.377Z,6.07
2018-09-09T14:30:55.505Z,5.20
2018-09-09T14:33:23.754Z,11.47
2018-09-09T14:35:51.852Z,4.17
2018-09-09T14:38:20.084Z,7.40
2018-09-09T14:40:48.315Z,4.83
2018-09-09T14:43:16.477Z,7.73
2018-09-09T14:45:44.599Z,6.23
2018-09-09T14:48:12.721Z,3.93
2018-09-09T14:50:40.842Z,8.93
2018-09-09T14:53:09.026Z,3.90
2018-09-09T14:55:37.122Z,6.40
2018-09-09T14:58:05.337Z,4.83
2018-09-09T15:00:34.521Z,3.57
2018-09-09T15:03:03.041Z,2.53
2018-09-09T15:05:31.249Z,3.50
2018-09-09T15:07:59.405Z,3.43
2018-09-09T15:10:27.732Z,2.60
2018-09-09T15:12:55.868Z,6.27
2018-09-09T15:15:24.123Z,3.97
2018-09-09T15:17:52.277Z,2.17
2018-09-09T15:20:20.483Z,3.83
2018-09-09T15:22:48.610Z,10.73
2018-09-09T15:25:17.003Z,3.20
2018-09-09T15:27:45.210Z,7.23
2018-09-09T15:30:13.317Z,7.13
2018-09-09T15:57:10.646Z,2.10
2018-09-09T15:59:38.755Z,6.73
2018-09-09T16:02:06.843Z,2.87
2018-09-09T16:04:35.119Z,4.07
2018-09-09T16:07:03.208Z,4.70
2018-09-09T16:09:31.315Z,2.90
2018-09-09T16:11:59.407Z,1.70
2018-09-09T16:14:27.523Z,2.73
2018-09-09T16:16:55.617Z,2.57
2018-09-09T16:19:23.696Z,4.53
2018-09-09T16:21:51.835Z,3.03
2018-09-09T16:24:19.996Z,2.63
2018-09-09T16:26:48.082Z,3.00
2018-09-09T16:29:16.167Z,2.80
2018-09-09T16:31:44.282Z,5.40
2018-09-09T16:34:12.447Z,3.07
2018-09-09T16:36:40.523Z,1.77
2018-09-09T16:39:08.883Z,4.30
2018-09-09T16:41:36.998Z,5.37
2018-09-09T16:44:10.847Z,3.63
2018-09-09T16:46:38.974Z,5.43
2018-09-09T16:49:07.094Z,7.73
2018-09-09T16:51:35.163Z,3.17
2018-09-09T16:54:03.288Z,4.60
2018-09-09T16:56:31.383Z,6.17
2018-09-09T16:58:59.590Z,5.77
2018-09-09T17:01:27.707Z,2.53
2018-09-09T17:03:55.819Z,3.10
2018-09-09T17:06:23.902Z,3.83
2018-09-09T17:08:52.003Z,1.83
2018-09-09T17:11:20.074Z,5.67
2018-09-09T17:13:48.174Z,2.97
2018-09-09T17:16:16.290Z,2.93
2018-09-09T17:18:44.392Z,3.17
2018-09-09T17:21:12.516Z,3.83
2018-09-09T17:23:40.647Z,2.20
2018-09-09T17:26:08.759Z,2.13
2018-09-09T17:28:36.863Z,1.70
2018-09-09T17:31:04.994Z,4.03
2018-09-09T17:33:33.110Z,3.67
2018-09-09T17:36:01.228Z,2.60
2018-09-09T17:38:29.666Z,5.17
2018-09-09T17:40:57.761Z,5.50
2018-09-09T17:43:25.853Z,3.10
2018-09-09T17:45:54.013Z,4.77
2018-09-09T17:48:22.106Z,15.63
2018-09-09T17:50:50.223Z,13.77
2018-09-09T17:53:18.574Z,14.23
2018-09-09T17:55:46.708Z,14.80
2018-09-09T17:58:14.841Z,14.00
2018-09-09T18:00:42.990Z,13.27
2018-09-09T18:03:11.082Z,13.73
2018-09-09T18:05:39.280Z,15.90
2018-09-09T18:08:07.927Z,8.37
2018-09-09T18:10:37.508Z,12.33
2018-09-09T18:13:06.958Z,13.33
2018-09-09T18:15:35.708Z,11.77
2018-09-09T18:18:03.841Z,14.20
2018-09-09T18:20:32.059Z,13.97
2018-09-09T18:23:00.254Z,11.93
2018-09-09T18:25:29.569Z,12.00
2018-09-09T18:27:57.653Z,15.10
2018-09-09T18:30:25.767Z,11.17
2018-09-09T18:32:53.911Z,24.40
2018-09-09T18:35:22.063Z,15.67
2018-09-09T18:37:50.146Z,13.33
2018-09-09T18:40:18.425Z,16.00
2018-09-09T18:42:46.539Z,16.80
2018-09-09T18:45:14.652Z,15.43
2018-09-09T18:47:42.844Z,15.57
2018-09-09T18:50:11.170Z,19.50
2018-09-09T18:52:39.269Z,16.33
2018-09-09T18:55:07.388Z,16.40
2018-09-09T18:57:35.651Z,13.77
2018-09-09T19:00:03.881Z,16.93
2018-09-09T19:02:32.170Z,13.80
2018-09-09T19:05:00.291Z,17.83
2018-09-09T19:07:28.379Z,15.80
2018-09-09T19:09:56.495Z,18.80
2018-09-09T19:12:24.614Z,15.60
2018-09-09T19:14:52.961Z,14.73
2018-09-09T19:17:21.063Z,12.60
2018-09-09T19:19:49.156Z,13.03
2018-09-09T19:22:17.265Z,15.77
2018-09-09T19:24:45.375Z,15.77
2018-09-09T19:27:13.531Z,13.27
2018-09-09T19:29:41.620Z,12.10
2018-09-09T19:32:09.760Z,12.50
2018-09-09T19:34:37.887Z,12.43
2018-09-09T19:37:06.115Z,12.13
2018-09-09T19:39:34.227Z,13.00
2018-09-09T19:42:02.326Z,10.93
2018-09-09T19:44:30.452Z,13.73
2018-09-09T19:46:58.582Z,13.17
2018-09-09T19:49:26.697Z,12.33
2018-09-09T19:51:54.839Z,12.67
2018-09-09T19:54:22.957Z,9.97
2018-09-09T19:56:51.044Z,17.73
2018-09-09T19:59:19.140Z,10.23
2018-09-09T20:01:47.319Z,12.70
2018-09-09T20:04:15.427Z,10.63
2018-09-09T20:06:43.716Z,13.33
2018-09-09T20:09:12.021Z,11.30
2018-09-09T20:11:40.150Z,11.33
2018-09-09T20:14:08.346Z,10.90
2018-09-09T20:16:36.437Z,10.07
2018-09-09T20:19:04.746Z,10.23
2018-09-09T20:21:32.891Z,9.50
2018-09-09T20:24:01.021Z,11.93
2018-09-09T20:26:29.188Z,13.73
2018-09-09T20:28:57.340Z,8.03
2018-09-09T20:31:25.446Z,7.20
2018-09-09T20:33:53.555Z,10.30
2018-09-09T20:36:21.738Z,11.10
2018-09-09T20:38:49.938Z,9.50
2018-09-09T20:41:18.143Z,7.93
2018-09-09T20:43:46.291Z,11.77
2018-09-09T20:46:14.472Z,6.33
2018-09-09T20:48:42.599Z,8.80
2018-09-09T20:51:10.814Z,10.63
2018-09-09T20:53:39.133Z,7.93
2018-09-09T20:56:07.261Z,9.80
2018-09-09T20:58:35.827Z,13.57
2018-09-09T21:01:03.945Z,11.07
2018-09-09T21:03:32.861Z,17.70
2018-09-09T21:06:00.958Z,15.70
2018-09-09T21:08:29.924Z,9.23
2018-09-09T21:10:58.794Z,6.73
2018-09-09T21:13:26.885Z,7.10
2018-09-09T21:15:56.196Z,9.70
2018-09-09T21:18:24.806Z,9.50
2018-09-09T21:20:53.194Z,6.40
2018-09-09T21:23:23.407Z,6.50
2018-09-09T21:25:51.782Z,8.87
2018-09-09T21:28:23.586Z,8.40
2018-09-09T21:30:52.595Z,7.40
2018-09-09T21:33:20.983Z,7.60
2018-09-09T21:35:49.583Z,5.50
2018-09-09T21:38:17.719Z,6.57
2018-09-09T21:40:46.271Z,6.33
2018-09-09T21:43:15.240Z,4.97
2018-09-09T21:45:43.634Z,6.63
2018-09-09T21:48:11.793Z,6.30
2018-09-09T21:50:43.337Z,5.60
2018-09-09T21:53:11.423Z,7.13
2018-09-09T21:55:40.648Z,6.63
2018-09-09T21:58:08.785Z,6.40
2018-09-09T22:00:41.128Z,5.67
2018-09-09T22:03:09.231Z,7.13
2018-09-09T22:05:37.303Z,4.77
2018-09-09T22:08:05.402Z,6.03
2018-09-09T22:10:33.471Z,5.20
2018-09-09T22:13:01.551Z,5.80
2018-09-09T22:15:29.657Z,5.83
2018-09-09T22:17:57.982Z,7.27
2018-09-09T22:20:26.069Z,4.90
2018-09-09T22:22:54.174Z,6.63
2018-09-09T22:25:22.248Z,5.33
2018-09-09T22:27:50.392Z,6.93
2018-09-09T22:30:18.461Z,5.17
2018-09-09T22:32:46.571Z,5.73
2018-09-09T22:35:14.653Z,6.87
2018-09-09T22:37:42.758Z,6.20
2018-09-09T22:40:10.843Z,6.47
2018-09-09T22:42:38.943Z,6.03
2018-09-09T22:45:07.018Z,5.63
2018-09-09T22:47:35.084Z,4.67
2018-09-09T22:50:03.156Z,5.27
2018-09-09T22:52:31.228Z,6.60
2018-09-09T22:54:59.334Z,4.83
2018-09-09T22:57:27.411Z,11.20
2018-09-09T22:59:55.537Z,5.37
2018-09-09T23:02:24.046Z,4.90
2018-09-09T23:04:52.360Z,5.43
2018-09-09T23:07:20.482Z,5.87
2018-09-09T23:09:48.599Z,4.60
2018-09-09T23:12:16.679Z,5.00
2018-09-09T23:14:44.822Z,5.87
2018-09-09T23:17:12.832Z,4.90
2018-09-09T23:19:40.926Z,3.70
2018-09-09T23:22:08.998Z,4.20
2018-09-09T23:24:37.305Z,5.50
2018-09-09T23:27:05.583Z,4.50
2018-09-09T23:29:33.851Z,4.03
2018-09-09T23:32:03.153Z,5.03
2018-09-09T23:34:31.355Z,3.83
2018-09-09T23:36:59.549Z,4.97
2018-09-09T23:39:27.767Z,4.87
2018-09-09T23:41:55.972Z,5.97
2018-09-09T23:44:24.241Z,5.10
2018-09-09T23:46:52.416Z,6.73
2018-09-09T23:49:20.575Z,6.57
2018-09-09T23:51:48.923Z,5.23
2018-09-09T23:54:16.995Z,4.83
2018-09-09T23:56:45.372Z,4.03
2018-09-09T23:59:15.124Z,4.13
